Airfield :
LOGIN :

Register | Disclaimer

   EN    FR    IT 

 










Legend :    VFR   Marginal VFR   IFR   Intensive IFR   Very Intensive IFR
Visi :
Ceiling :
>= 8 km
>= 3000ft
5 to 8 km
1000 to 3000 ft
1500m to 5 km
500 to 1000 ft
800 to 1500m
200 to 500 ft
< 800m
< 200 ft
Symbols :   Thunderstorms  Fog  Heavy snow  Heavy precipitations  Wind > 20 kt
SIGMETs :     Misc.  Thunderstorms  Icing  Turbulence  Mountain Waves  Volcanic Ashes







- Airport Elevation : 300 ft
- IATA code : MLA


LMML - Malta Luqa

CURRENT METAR :
  • 210045Z 13011KT 9999 FEW015 22/19 Q1018 NOSIG

EXPIRED METARs :
  • 210015Z AUTO 13012KT 9999NDV FEW015/// BKN140/// 22/19 Q1018 NOSIG
  • 202345Z 14012KT 9999 SCT014 22/20 Q1018 NOSIG
  • 202315Z 12010KT 9999 FEW015 22/20 Q1018 NOSIG
  • 202245Z 14010KT 9999 FEW015 22/20 Q1018 NOSIG
  • 202215Z 14011KT 9999 SCT013 22/20 Q1018 NOSIG

TAF TAF LMML
Valid from the 21 at 00:00 until the 22 at 00:00 UTC


202300Z 2100/2124 12012KT 9999 FEW014
No reported NOTAMs for that airfield.
1 SIGMET reported for the Malta FIR (LMMM) :
 
Frequent thunderstorms
LMMM SIGMET 2 VALID 202232/210232 LMML
LMMM MALTA FIR FRQ TS OBS W OF E012 TOP FL340 MOV N NC=



MET'MAP, your aeronautical weather chart ! - Copyright ORBIFLY December 2007 - Disclaimer

ORBIFLY MET'MAP TEAM :

Programming & Development : Alexandra Zaïnal
Concept & Development : Baudouin d'Aumeries
Co-Development & Prog : Marc-Olivier Méhu
Technical & hardware support : Manuel Goepfert

Contact : metmap@orbifly.com




SOURCES & CREDITS :

   NOAA